createdAt,value
2023-01-13T00:01:27.793Z,99035.19
2023-01-13T00:03:56.398Z,99026.00
2023-01-13T00:06:25.009Z,99035.50
2023-01-13T00:08:52.949Z,99026.84
2023-01-13T00:11:20.567Z,99024.63
2023-01-13T00:13:47.641Z,99025.94
2023-01-13T00:16:17.203Z,99024.44
2023-01-13T00:18:45.027Z,99014.88
2023-01-13T00:21:16.444Z,99029.09
2023-01-13T00:23:44.124Z,99020.94
2023-01-13T00:26:16.016Z,99030.63
2023-01-13T00:28:43.424Z,99028.06
2023-01-13T00:31:13.004Z,99015.63
2023-01-13T00:33:40.901Z,99013.09
2023-01-13T00:36:10.570Z,99009.34
2023-01-13T00:38:37.629Z,99012.91
2023-01-13T00:41:08.197Z,99013.59
2023-01-13T00:43:37.181Z,99006.06
2023-01-13T00:46:06.448Z,98994.31
2023-01-13T00:48:34.278Z,98985.97
2023-01-13T00:51:04.285Z,98998.19
2023-01-13T00:53:37.606Z,98994.72
2023-01-13T00:56:12.569Z,99001.84
2023-01-13T00:58:40.069Z,98987.38
2023-01-13T01:01:10.105Z,98991.81
2023-01-13T01:03:37.887Z,98988.25
2023-01-13T01:06:08.449Z,98983.84
2023-01-13T01:08:35.877Z,98969.19
2023-01-13T01:11:05.926Z,98988.69
2023-01-13T01:13:33.086Z,98984.09
2023-01-13T01:16:03.045Z,98978.38
2023-01-13T01:18:30.054Z,98982.59
2023-01-13T01:20:59.925Z,98974.25
2023-01-13T01:23:30.639Z,98985.34
2023-01-13T01:26:05.372Z,98969.09
2023-01-13T01:28:32.632Z,98981.47
2023-01-13T01:30:59.794Z,98980.41
2023-01-13T01:33:27.578Z,98987.00
2023-01-13T01:35:54.841Z,98986.78
2023-01-13T01:38:21.856Z,98986.78
2023-01-13T01:40:49.412Z,98989.34
2023-01-13T01:43:19.704Z,98988.28
2023-01-13T01:45:46.696Z,98978.44
2023-01-13T01:48:13.991Z,98976.84
2023-01-13T01:50:41.020Z,98974.50
2023-01-13T01:53:17.041Z,98983.13
2023-01-13T01:55:44.704Z,98969.91
2023-01-13T01:58:18.079Z,98973.44
2023-01-13T02:00:45.114Z,98954.41
2023-01-13T02:03:12.526Z,98969.25
2023-01-13T02:05:39.585Z,98963.22
2023-01-13T02:08:08.004Z,98972.41
2023-01-13T02:10:36.140Z,98956.09
2023-01-13T02:13:07.515Z,98953.75
2023-01-13T02:15:59.756Z,98946.53
2023-01-13T02:18:44.689Z,98945.72
2023-01-13T02:21:36.630Z,98945.41
2023-01-13T02:24:30.896Z,98939.16
2023-01-13T02:27:00.700Z,98932.84
2023-01-13T02:29:49.160Z,98942.25
2023-01-13T02:32:39.110Z,98942.84
2023-01-13T02:35:18.290Z,98936.28
2023-01-13T02:37:46.545Z,98939.09
2023-01-13T02:40:32.071Z,98937.03
2023-01-13T02:43:04.836Z,98922.84
2023-01-13T02:45:44.010Z,98930.44
2023-01-13T02:48:12.662Z,98917.41
2023-01-13T02:50:46.289Z,98923.97
2023-01-13T02:53:22.910Z,98913.53
2023-01-13T02:55:53.251Z,98914.66
2023-01-13T02:58:24.999Z,98918.63
2023-01-13T03:00:52.199Z,98907.13
2023-01-13T03:03:19.359Z,98916.16
2023-01-13T03:05:48.606Z,98914.53
2023-01-13T03:08:33.416Z,98908.06
2023-01-13T03:11:08.463Z,98891.09
2023-01-13T03:14:13.033Z,98902.06
2023-01-13T03:16:56.558Z,98904.78
2023-01-13T03:19:52.741Z,98902.31
2023-01-13T03:22:40.794Z,98902.94
2023-01-13T03:25:20.360Z,98901.72
2023-01-13T03:27:57.972Z,98900.03
2023-01-13T03:30:44.284Z,98904.72
2023-01-13T03:33:31.597Z,98902.81
2023-01-13T03:36:04.172Z,98902.38
2023-01-13T03:38:35.569Z,98895.25
2023-01-13T03:41:10.426Z,98900.69
2023-01-13T03:43:45.232Z,98907.81
2023-01-13T03:46:24.089Z,98896.56
2023-01-13T03:48:54.411Z,98899.28
2023-01-13T03:51:24.990Z,98901.13
2023-01-13T03:54:00.050Z,98892.97
2023-01-13T03:56:41.774Z,98902.13
2023-01-13T03:59:16.797Z,98894.16
2023-01-13T04:01:59.726Z,98885.97
2023-01-13T04:04:33.036Z,98883.44
2023-01-13T04:07:16.884Z,98882.22
2023-01-13T04:09:54.908Z,98877.44
2023-01-13T04:12:29.672Z,98872.75
2023-01-13T04:14:57.003Z,98884.50
2023-01-13T04:17:24.034Z,98870.94
2023-01-13T04:19:51.243Z,98877.63
2023-01-13T04:22:18.323Z,98872.81
2023-01-13T04:24:45.367Z,98872.44
2023-01-13T04:27:12.407Z,98870.34
2023-01-13T04:29:39.406Z,98858.63
2023-01-13T04:32:06.536Z,98861.16
2023-01-13T04:34:33.617Z,98860.31
2023-01-13T04:37:00.673Z,98854.66
2023-01-13T04:39:27.715Z,98855.91
2023-01-13T04:41:54.730Z,98856.72
2023-01-13T04:44:21.774Z,98842.09
2023-01-13T04:46:48.820Z,98847.06
2023-01-13T04:49:15.925Z,98852.53
2023-01-13T04:51:42.967Z,98841.63
2023-01-13T04:54:11.312Z,98841.63
2023-01-13T04:56:38.362Z,98831.84
2023-01-13T04:59:05.578Z,98843.59
2023-01-13T05:01:32.766Z,98820.97
2023-01-13T05:03:59.909Z,98833.34
2023-01-13T05:06:27.473Z,98835.22
2023-01-13T05:08:54.498Z,98836.72
2023-01-13T05:11:21.782Z,98831.91
2023-01-13T05:13:48.862Z,98832.09
2023-01-13T05:16:15.916Z,98823.09
2023-01-13T05:18:46.316Z,98821.63
2023-01-13T05:21:13.631Z,98841.50
2023-01-13T05:23:40.734Z,98836.09
2023-01-13T05:26:07.990Z,98829.00
2023-01-13T05:28:35.166Z,98842.22
2023-01-13T05:31:02.315Z,98838.63
2023-01-13T05:33:29.443Z,98850.38
2023-01-13T05:35:56.527Z,98843.03
2023-01-13T05:38:23.530Z,98852.91
2023-01-13T05:40:50.652Z,98840.13
2023-01-13T05:43:20.166Z,98855.44
2023-01-13T05:45:56.367Z,98848.91
2023-01-13T05:48:29.540Z,98870.63
2023-01-13T05:50:56.695Z,98889.41
2023-01-13T05:53:24.376Z,98898.22
2023-01-13T05:55:52.478Z,98929.53
2023-01-13T05:58:21.406Z,98944.97
2023-01-13T06:00:48.437Z,98945.06
2023-01-13T06:03:16.173Z,98954.19
2023-01-13T06:05:43.420Z,98928.38
2023-01-13T06:08:10.390Z,98932.53
2023-01-13T06:10:37.513Z,98938.16
2023-01-13T06:13:05.231Z,98946.47
2023-01-13T06:15:32.624Z,98954.81
2023-01-13T06:18:02.919Z,98968.59
2023-01-13T06:20:30.021Z,98982.38
2023-01-13T06:22:57.973Z,98988.72
2023-01-13T06:25:43.821Z,98996.94
2023-01-13T06:28:10.869Z,99006.97
2023-01-13T06:30:43.210Z,99007.41
2023-01-13T06:33:19.909Z,98999.31
2023-01-13T06:35:54.801Z,98986.09
2023-01-13T06:38:26.907Z,98995.22
2023-01-13T06:40:54.655Z,98987.13
2023-01-13T06:43:22.074Z,98960.34
2023-01-13T06:45:52.183Z,98960.03
2023-01-13T06:48:28.904Z,98967.72
2023-01-13T06:50:55.924Z,98965.28
2023-01-13T06:53:23.003Z,98995.91
2023-01-13T06:55:50.094Z,99023.06
2023-01-13T06:58:17.373Z,99033.78
2023-01-13T07:00:44.674Z,99028.84
2023-01-13T07:03:13.984Z,99026.97
2023-01-13T07:05:42.810Z,99027.47
2023-01-13T07:08:10.740Z,99031.38
2023-01-13T07:10:38.392Z,99035.47
2023-01-13T07:13:06.114Z,99025.44
2023-01-13T07:15:34.314Z,99019.88
2023-01-13T07:18:02.182Z,98991.06
2023-01-13T07:20:30.162Z,98974.31
2023-01-13T07:22:57.868Z,98968.75
2023-01-13T07:25:25.333Z,98968.25
2023-01-13T07:27:52.411Z,98970.78
2023-01-13T07:30:19.647Z,98971.34
2023-01-13T07:32:46.665Z,98970.84
2023-01-13T07:35:13.740Z,98973.97
2023-01-13T07:37:40.967Z,98987.69
2023-01-13T07:40:08.973Z,98994.59
2023-01-13T07:42:38.500Z,98998.16
2023-01-13T07:45:06.356Z,98991.38
2023-01-13T07:47:33.427Z,99009.00
2023-01-13T07:50:00.518Z,99015.63
2023-01-13T07:52:27.710Z,99022.25
2023-01-13T07:54:54.836Z,99029.25
2023-01-13T07:57:21.988Z,99021.78
2023-01-13T07:59:49.071Z,99028.75
2023-01-13T08:02:16.402Z,99016.22
2023-01-13T08:04:43.625Z,99009.13
2023-01-13T08:07:10.642Z,99013.00
2023-01-13T08:09:37.790Z,99022.13
2023-01-13T08:12:05.044Z,99025.88
2023-01-13T08:14:32.384Z,99046.38
2023-01-13T08:16:59.519Z,99052.63
2023-01-13T08:19:26.548Z,99050.78
2023-01-13T08:21:53.775Z,99052.28
2023-01-13T08:24:20.821Z,99049.94
2023-01-13T08:26:47.848Z,99058.22
2023-01-13T08:29:27.093Z,99068.53
2023-01-13T08:31:54.139Z,99068.66
2023-01-13T08:34:21.331Z,99075.44
2023-01-13T08:36:51.151Z,99069.47
2023-01-13T08:39:18.364Z,99074.56
2023-01-13T08:41:45.611Z,99078.91
2023-01-13T08:44:12.668Z,99075.19
2023-01-13T08:46:41.299Z,99087.53
2023-01-13T08:49:08.607Z,99095.50
2023-01-13T08:51:35.698Z,99106.19
2023-01-13T08:54:03.472Z,99102.75
2023-01-13T08:56:34.196Z,99095.34
2023-01-13T08:59:02.567Z,99086.63
2023-01-13T09:01:30.304Z,99080.56
2023-01-13T09:03:57.548Z,99081.72
2023-01-13T09:06:24.706Z,99080.50
2023-01-13T09:08:52.468Z,99086.41
2023-01-13T09:11:25.000Z,99077.38
2023-01-13T09:13:52.072Z,99076.47
2023-01-13T09:16:19.234Z,99083.72
2023-01-13T09:18:46.321Z,99088.78
2023-01-13T09:21:14.073Z,99088.59
2023-01-13T09:23:41.132Z,99093.06
2023-01-13T09:26:09.542Z,99101.91
2023-01-13T09:28:36.643Z,99095.31
2023-01-13T09:31:03.875Z,99090.91
2023-01-13T09:33:30.925Z,99093.63
2023-01-13T09:35:58.374Z,99088.84
2023-01-13T09:38:25.469Z,99081.56
2023-01-13T09:40:53.051Z,99088.00
2023-01-13T09:43:26.761Z,99093.25
2023-01-13T09:46:01.659Z,99085.78
2023-01-13T09:48:36.132Z,99088.00
2023-01-13T09:51:12.380Z,99093.38
2023-01-13T09:53:56.965Z,99091.97
2023-01-13T09:56:25.273Z,99093.47
2023-01-13T09:58:52.819Z,99092.53
2023-01-13T10:01:44.033Z,99106.94
2023-01-13T10:04:13.742Z,99112.19
2023-01-13T10:06:44.111Z,99098.78
2023-01-13T10:09:44.122Z,99099.88
2023-01-13T10:12:18.880Z,99106.38
2023-01-13T10:14:52.671Z,99113.72
2023-01-13T10:17:31.617Z,99104.38
2023-01-13T10:20:20.917Z,99109.09
2023-01-13T10:22:50.937Z,99117.25
2023-01-13T10:25:36.351Z,99114.25
2023-01-13T10:28:13.104Z,99131.50
2023-01-13T10:30:45.726Z,99126.22
2023-01-13T10:33:26.936Z,99123.63
2023-01-13T10:36:03.750Z,99114.63
2023-01-13T10:38:38.395Z,99122.31
2023-01-13T10:41:26.809Z,99125.88
2023-01-13T10:44:07.306Z,99125.22
2023-01-13T10:46:51.860Z,99124.75
2023-01-13T10:49:27.542Z,99116.97
2023-01-13T10:51:54.850Z,99115.56
2023-01-13T10:54:24.374Z,99106.63
2023-01-13T10:57:29.305Z,99122.97
2023-01-13T10:59:56.478Z,99116.31
2023-01-13T11:02:30.911Z,99116.56
2023-01-13T11:05:01.331Z,99116.47
2023-01-13T11:07:32.715Z,99113.75
2023-01-13T11:10:26.757Z,99121.53
2023-01-13T11:13:09.041Z,99129.63
2023-01-13T11:15:41.212Z,99120.78
2023-01-13T11:18:18.149Z,99116.13
2023-01-13T11:20:49.316Z,99120.16
2023-01-13T11:23:29.822Z,99120.72
2023-01-13T11:26:04.147Z,99133.00
2023-01-13T11:29:13.402Z,99135.44
2023-01-13T11:31:48.505Z,99139.84
2023-01-13T11:34:30.323Z,99137.31
2023-01-13T11:37:00.545Z,99136.09
2023-01-13T11:39:34.234Z,99134.03
2023-01-13T11:42:32.353Z,99135.94
2023-01-13T11:45:17.661Z,99126.38
2023-01-13T11:47:48.267Z,99124.84
2023-01-13T11:50:40.406Z,99116.91
2023-01-13T11:53:23.061Z,99113.31
2023-01-13T11:56:15.241Z,99124.91
2023-01-13T11:59:01.025Z,99114.84
2023-01-13T12:01:40.510Z,99120.66
2023-01-13T12:04:23.656Z,99146.09
2023-01-13T12:06:59.640Z,99124.06
2023-01-13T12:09:41.412Z,99140.28
2023-01-13T12:12:14.216Z,99154.53
2023-01-13T12:14:53.342Z,99168.63
2023-01-13T12:17:38.475Z,99150.13
2023-01-13T12:20:46.827Z,99148.91
2023-01-13T12:23:34.994Z,99167.16
2023-01-13T12:26:12.090Z,99161.72
2023-01-13T12:29:19.152Z,99159.91
2023-01-13T12:31:49.065Z,99159.44
2023-01-13T12:34:23.601Z,99153.31
2023-01-13T12:36:57.601Z,99156.91
2023-01-13T12:39:43.020Z,99149.03
2023-01-13T12:42:16.235Z,99145.97
2023-01-13T12:45:05.225Z,99145.44
2023-01-13T12:47:40.601Z,99148.47
2023-01-13T12:50:22.818Z,99144.47
2023-01-13T12:53:00.323Z,99146.09
2023-01-13T12:55:31.937Z,99138.78
2023-01-13T12:58:14.658Z,99144.44
2023-01-13T13:00:41.710Z,99142.56
2023-01-13T13:03:12.495Z,99138.94
2023-01-13T13:06:01.857Z,99132.78
2023-01-13T13:08:52.769Z,99125.84
2023-01-13T13:11:42.233Z,99129.88
2023-01-13T13:14:14.324Z,99128.47
2023-01-13T13:16:52.629Z,99131.19
2023-01-13T13:19:19.793Z,99131.09
2023-01-13T13:22:12.211Z,99130.78
2023-01-13T13:24:48.563Z,99132.81
2023-01-13T13:27:28.403Z,99131.94
2023-01-13T13:29:59.436Z,99141.47
2023-01-13T13:32:34.174Z,99153.72
2023-01-13T13:35:22.808Z,99146.91
2023-01-13T13:37:58.926Z,99144.69
2023-01-13T13:40:30.934Z,99142.75
2023-01-13T13:42:58.466Z,99156.81
2023-01-13T13:45:27.027Z,99155.50
2023-01-13T13:47:55.353Z,99152.09
2023-01-13T13:50:23.835Z,99166.91
2023-01-13T13:52:59.979Z,99167.59
2023-01-13T13:55:32.534Z,99171.53
2023-01-13T13:58:04.086Z,99173.44
2023-01-13T14:00:39.717Z,99183.69
2023-01-13T14:03:33.502Z,99209.16
2023-01-13T14:06:05.913Z,99217.13
2023-01-13T14:08:37.212Z,99218.16
2023-01-13T14:11:33.155Z,99238.94
2023-01-13T14:14:13.377Z,99231.19
2023-01-13T14:16:42.965Z,99213.44
2023-01-13T14:19:31.096Z,99219.06
2023-01-13T14:22:02.114Z,99219.75
2023-01-13T14:24:31.229Z,99226.72
2023-01-13T14:27:19.386Z,99220.63
2023-01-13T14:29:47.757Z,99230.31
2023-01-13T14:32:23.050Z,99238.16
2023-01-13T14:34:52.193Z,99243.44
2023-01-13T14:37:28.614Z,99249.41
2023-01-13T14:39:56.972Z,99253.97
2023-01-13T14:42:26.213Z,99255.00
2023-01-13T14:44:56.236Z,99267.69
2023-01-13T14:47:28.361Z,99276.00
2023-01-13T14:50:10.927Z,99272.63
2023-01-13T14:56:52.037Z,99303.47
2023-01-13T14:59:42.013Z,99298.38
2023-01-13T15:02:26.422Z,99298.72
2023-01-13T15:04:54.755Z,99293.81
2023-01-13T15:07:31.485Z,99295.84
2023-01-13T15:10:01.827Z,99300.78
2023-01-13T15:12:38.173Z,99300.63
2023-01-13T15:15:19.019Z,99313.81
2023-01-13T15:17:46.205Z,99319.41
2023-01-13T15:20:14.797Z,99320.75
2023-01-13T15:22:42.132Z,99326.03
2023-01-13T15:25:09.627Z,99337.03
2023-01-13T15:27:38.265Z,99333.50
2023-01-13T15:30:22.814Z,99326.72
2023-01-13T15:32:52.417Z,99330.78
2023-01-13T15:35:20.301Z,99335.50
2023-01-13T15:37:48.453Z,99336.53
2023-01-13T15:40:24.126Z,99342.81
2023-01-13T15:42:51.220Z,99345.19
2023-01-13T15:45:18.256Z,99350.25
2023-01-13T15:47:45.416Z,99352.16
2023-01-13T15:50:16.903Z,99349.59
2023-01-13T15:52:44.352Z,99354.00
2023-01-13T15:55:11.450Z,99350.25
2023-01-13T15:57:42.471Z,99352.31
2023-01-13T16:00:19.052Z,99358.53
2023-01-13T16:02:46.504Z,99359.91
2023-01-13T16:05:13.536Z,99361.28
2023-01-13T16:07:41.802Z,99362.13
2023-01-13T16:10:25.238Z,99370.44
2023-01-13T16:12:52.926Z,99379.44
2023-01-13T16:15:20.215Z,99380.97
2023-01-13T16:17:50.559Z,99380.78
2023-01-13T16:20:18.565Z,99382.66
2023-01-13T16:22:45.728Z,99386.06
2023-01-13T16:25:18.097Z,99392.31
2023-01-13T16:27:45.678Z,99390.09
2023-01-13T16:30:23.781Z,99402.66
2023-01-13T16:32:51.670Z,99398.25
2023-01-13T16:35:19.282Z,99412.66
2023-01-13T16:37:46.691Z,99408.59
2023-01-13T17:58:22.546Z,99490.47
2023-01-13T18:24:16.867Z,99511.91
2023-01-13T18:26:43.807Z,99519.03
2023-01-13T18:29:10.780Z,99520.88
2023-01-13T18:31:37.935Z,99523.06
2023-01-13T18:34:05.012Z,99519.28
2023-01-13T18:36:32.212Z,99536.44
2023-01-13T18:38:59.237Z,99533.72
2023-01-13T18:41:26.494Z,99547.44
2023-01-13T18:43:53.548Z,99549.81
2023-01-13T18:46:20.925Z,99560.53
2023-01-13T18:48:48.113Z,99553.09
2023-01-13T18:51:15.127Z,99562.78
2023-01-13T18:53:42.177Z,99547.84
2023-01-13T18:56:13.425Z,99549.72
2023-01-13T18:58:41.934Z,99558.06
2023-01-13T19:01:10.220Z,99555.84
2023-01-13T19:03:37.372Z,99561.44
2023-01-13T19:06:05.270Z,99565.53
2023-01-13T19:08:32.714Z,99570.78
2023-01-13T19:11:08.797Z,99566.19
2023-01-13T19:13:36.438Z,99576.84
2023-01-13T19:16:05.971Z,99585.16
2023-01-13T19:18:33.979Z,99583.28
2023-01-13T19:21:02.673Z,99593.97
2023-01-13T19:23:30.071Z,99598.53
2023-01-13T19:26:01.644Z,99598.22
2023-01-13T19:28:28.809Z,99601.66
2023-01-13T19:31:03.236Z,99599.91
2023-01-13T19:33:32.721Z,99606.22
2023-01-13T19:36:00.263Z,99618.75
2023-01-13T19:38:27.790Z,99619.63
2023-01-13T19:40:56.280Z,99620.28
2023-01-13T19:43:23.969Z,99634.56
2023-01-13T19:45:51.460Z,99634.56
2023-01-13T19:48:18.560Z,99637.94
2023-01-13T19:50:45.591Z,99654.72
2023-01-13T19:53:16.159Z,99652.00
2023-01-13T19:55:47.261Z,99652.16
2023-01-13T19:58:14.512Z,99653.50
2023-01-13T20:00:41.790Z,99658.22
2023-01-13T20:03:08.967Z,99656.31
2023-01-13T20:05:36.096Z,99659.66
2023-01-13T20:08:03.219Z,99662.31
2023-01-13T20:10:30.562Z,99662.63
2023-01-13T20:12:57.953Z,99666.28
2023-01-13T20:15:25.129Z,99668.28
2023-01-13T20:17:52.169Z,99680.75
2023-01-13T20:20:19.279Z,99667.97
2023-01-13T20:22:46.520Z,99680.47
2023-01-13T20:25:14.162Z,99682.41
2023-01-13T20:27:41.157Z,99691.56
2023-01-13T20:30:08.875Z,99690.84
2023-01-13T20:32:36.451Z,99694.19
2023-01-13T20:35:03.829Z,99703.41
2023-01-13T20:37:30.847Z,99693.56
2023-01-13T20:39:57.937Z,99703.41
2023-01-13T20:42:25.012Z,99708.38
2023-01-13T20:44:52.142Z,99718.91
2023-01-13T20:47:29.789Z,99714.38
2023-01-13T20:49:57.163Z,99716.06
2023-01-13T20:52:24.380Z,99715.69
2023-01-13T20:54:51.560Z,99718.38
2023-01-13T20:57:18.687Z,99721.78
2023-01-13T20:59:45.983Z,99712.38
2023-01-13T21:02:15.509Z,99710.44
2023-01-13T21:04:43.481Z,99715.78
2023-01-13T21:07:11.656Z,99712.19
2023-01-13T21:09:39.851Z,99722.50
2023-01-13T21:12:07.648Z,99721.47
2023-01-13T21:14:34.826Z,99718.63
2023-01-13T21:17:03.033Z,99721.47
2023-01-13T21:19:30.384Z,99726.91
2023-01-13T21:21:57.469Z,99726.75
2023-01-13T21:24:25.344Z,99723.22
2023-01-13T21:26:53.542Z,99724.03
2023-01-13T21:29:20.914Z,99731.00
2023-01-13T21:31:48.081Z,99727.84
2023-01-13T21:34:15.229Z,99729.41
2023-01-13T21:36:42.531Z,99741.25
2023-01-13T21:39:10.240Z,99745.66
2023-01-13T21:41:37.324Z,99739.94
2023-01-13T21:44:04.533Z,99755.25
2023-01-13T21:46:31.611Z,99767.91
2023-01-13T21:48:59.181Z,99764.00
2023-01-13T21:51:26.790Z,99777.19
2023-01-13T21:53:55.036Z,99768.78
2023-01-13T21:56:22.611Z,99775.34
2023-01-13T21:58:50.225Z,99776.66
2023-01-13T22:01:19.000Z,99787.78
2023-01-13T22:03:46.182Z,99785.69
2023-01-13T22:06:13.219Z,99797.22
2023-01-13T22:08:40.266Z,99808.91
2023-01-13T22:11:07.319Z,99814.47
2023-01-13T22:13:34.516Z,99804.81
2023-01-13T22:16:04.632Z,99792.94
2023-01-13T22:18:31.694Z,99793.41
2023-01-13T22:21:00.842Z,99794.56
2023-01-13T22:23:28.447Z,99802.13
2023-01-13T22:26:05.516Z,99808.44
2023-01-13T22:28:32.832Z,99807.31
2023-01-13T22:31:01.196Z,99809.31
2023-01-13T22:33:28.449Z,99818.19
2023-01-13T22:35:55.654Z,99812.34
2023-01-13T22:38:22.740Z,99816.19
2023-01-13T22:40:57.871Z,99820.59
2023-01-13T22:43:26.588Z,99831.59
2023-01-13T22:46:02.342Z,99823.75
2023-01-13T22:48:29.833Z,99835.41
2023-01-13T22:50:57.071Z,99832.03
2023-01-13T22:53:24.303Z,99826.59
2023-01-13T22:55:55.701Z,99832.03
2023-01-13T22:58:23.223Z,99823.03
2023-01-13T23:00:50.696Z,99827.63
2023-01-13T23:03:17.793Z,99835.88
2023-01-13T23:05:45.207Z,99827.34
2023-01-13T23:08:12.898Z,99835.00
2023-01-13T23:10:41.305Z,99842.16
2023-01-13T23:13:09.131Z,99834.19
2023-01-13T23:15:36.167Z,99836.63
2023-01-13T23:18:03.425Z,99842.44
2023-01-13T23:20:30.895Z,99839.47
2023-01-13T23:22:58.291Z,99841.59
2023-01-13T23:25:26.162Z,99832.47
2023-01-13T23:27:53.245Z,99830.94
2023-01-13T23:30:20.448Z,99823.81
2023-01-13T23:32:47.460Z,99838.47
2023-01-13T23:35:14.691Z,99847.00
2023-01-13T23:37:41.801Z,99832.19
2023-01-13T23:40:10.092Z,99829.19
2023-01-13T23:42:37.279Z,99830.47
2023-01-13T23:45:04.758Z,99827.91
2023-01-13T23:47:31.938Z,99824.66
2023-01-13T23:49:59.062Z,99820.94
2023-01-13T23:52:26.235Z,99814.84
2023-01-13T23:54:53.298Z,99833.19
2023-01-13T23:57:20.323Z,99833.19
2023-01-13T23:59:47.428Z,99836.47
